Time;durP1;ratioP1;P1;durP2;ratioP2;P2;SDS_P1;SDS_P2;PMS_P1;PMS_P2;Temp;Humidity;BMP_temperature;BMP_pressure;BME280_temperature;BME280_humidity;BME280_pressure;Samples;Min_cycle;Max_cycle;Signal;HPM_P1;HPM_P2
2022/08/11 00:01:49;;;;;;;6.38;1.67;;;;;;;31.62;28.66;101507.06;5092269;28;20039;-46
2022/08/11 00:04:18;;;;;;;3.15;1.73;;;;;;;31.63;28.57;101498.19;5093181;28;20077;-46
2022/08/11 00:06:47;;;;;;;5.75;1.70;;;;;;;31.69;28.27;101507.84;5095428;28;20020;-48
2022/08/11 00:09:20;;;;;;;5.55;1.80;;;;;;;31.63;28.07;101503.50;5094869;28;20464;-44
2022/08/11 00:11:51;;;;;;;4.90;1.95;;;;;;;31.59;28.58;101508.88;5095444;28;20023;-44
2022/08/11 00:14:27;;;;;;;7.47;1.73;;;;;;;31.63;28.38;101503.50;5096318;28;20108;-45
2022/08/11 00:16:58;;;;;;;2.63;1.52;;;;;;;31.57;28.48;101508.91;5096259;28;20020;-45
2022/08/11 00:19:29;;;;;;;3.35;1.40;;;;;;;31.45;28.33;101494.00;5094897;28;20028;-53
2022/08/11 00:21:59;;;;;;;5.40;1.58;;;;;;;31.53;28.24;101504.50;5096042;28;20035;-54
2022/08/11 00:24:34;;;;;;;6.50;2.00;;;;;;;31.35;28.62;101501.16;5096091;28;20020;-45
2022/08/11 00:27:02;;;;;;;7.55;2.05;;;;;;;31.42;28.68;101495.81;5095024;28;20428;-44
2022/08/11 00:29:31;;;;;;;4.80;1.80;;;;;;;31.43;28.42;101501.06;5095614;28;20382;-44
2022/08/11 00:32:02;;;;;;;5.90;2.42;;;;;;;31.43;28.33;101497.56;5094020;28;20135;-45
2022/08/11 00:34:33;;;;;;;8.18;1.85;;;;;;;31.34;28.54;101499.41;5095752;28;20051;-45
2022/08/11 00:37:06;;;;;;;13.07;1.80;;;;;;;31.19;28.93;101491.59;5094725;28;20050;-45
2022/08/11 00:39:42;;;;;;;3.15;1.60;;;;;;;31.21;28.72;101495.97;5095763;28;20024;-44
2022/08/11 00:42:23;;;;;;;6.63;1.80;;;;;;;31.16;28.84;101489.88;5095320;28;20116;-44
2022/08/11 00:45:11;;;;;;;4.97;2.08;;;;;;;31.20;28.52;101496.88;5095789;28;20046;-45
2022/08/11 00:48:05;;;;;;;5.00;2.00;;;;;;;31.19;28.17;101489.81;5094293;28;20379;-47
2022/08/11 00:50:37;;;;;;;4.55;1.63;;;;;;;31.14;28.41;101491.66;5095533;28;20053;-47
2022/08/11 00:53:25;;;;;;;5.25;2.03;;;;;;;31.07;28.81;101488.16;5095556;28;20024;-44
2022/08/11 00:56:27;;;;;;;5.15;1.88;;;;;;;31.15;28.48;101489.84;5088747;28;20077;-53
2022/08/11 00:59:07;;;;;;;3.53;1.50;;;;;;;31.18;28.45;101487.19;5091159;28;20039;-45
2022/08/11 01:01:55;;;;;;;3.70;1.85;;;;;;;30.99;28.91;101467.91;5095304;28;20024;-51
2022/08/11 01:04:54;;;;;;;3.15;1.48;;;;;;;31.16;28.63;101487.22;5094314;28;20035;-43
2022/08/11 01:08:00;;;;;;;10.45;2.20;;;;;;;31.01;28.76;101485.53;5094268;28;20486;-45
2022/08/11 01:10:48;;;;;;;6.60;1.90;;;;;;;30.98;28.86;101493.50;5091101;28;20058;-44
2022/08/11 01:13:16;;;;;;;7.25;1.63;;;;;;;30.94;28.83;101481.19;5092245;28;20039;-50
2022/08/11 01:16:14;;;;;;;4.43;1.92;;;;;;;30.89;28.40;101483.88;5095092;28;20020;-46
2022/08/11 01:19:02;;;;;;;4.82;1.90;;;;;;;30.93;28.51;101490.03;5080298;28;20491;-53
2022/08/11 01:21:49;;;;;;;3.42;1.40;;;;;;;30.95;28.83;101497.97;5091513;28;20040;-45
2022/08/11 01:24:24;;;;;;;7.45;2.00;;;;;;;30.89;29.01;101490.94;5094824;28;20077;-44
2022/08/11 01:27:02;;;;;;;5.65;2.05;;;;;;;30.86;28.62;101496.25;5094950;28;20020;-45
2022/08/11 01:29:49;;;;;;;5.07;2.22;;;;;;;30.73;28.92;101492.81;5095053;28;20020;-49
2022/08/11 01:32:37;;;;;;;5.75;2.13;;;;;;;30.74;28.90;101494.59;5104777;28;20495;-52
2022/08/11 01:35:44;;;;;;;4.13;1.55;;;;;;;30.86;28.70;101493.63;5114643;28;20459;-46
2022/08/11 01:38:21;;;;;;;6.05;1.92;;;;;;;30.86;28.54;101499.78;5107985;28;20032;-47
2022/08/11 01:41:09;;;;;;;6.75;2.22;;;;;;;30.84;28.54;101500.69;5114979;28;20364;-45
2022/08/11 01:44:38;;;;;;;3.95;1.90;;;;;;;30.74;28.75;101503.44;5105835;28;20084;-46
2022/08/11 01:46:50;;;;;;;3.58;1.50;;;;;;;30.79;28.67;101502.47;5105958;28;20042;-44
2022/08/11 01:49:43;;;;;;;5.70;1.90;;;;;;;30.74;28.68;101502.53;5096860;28;20106;-45
2022/08/11 01:52:28;;;;;;;6.18;1.90;;;;;;;30.67;29.00;101477.00;5096570;28;20042;-44
2022/08/11 01:55:18;;;;;;;6.97;1.73;;;;;;;30.70;28.95;101501.69;5079918;28;20023;-46
2022/08/11 01:57:55;;;;;;;4.78;1.73;;;;;;;30.64;28.83;101492.91;5073413;28;20475;-49
2022/08/11 02:00:28;;;;;;;7.93;2.30;;;;;;;30.65;28.71;101497.31;5114670;28;20020;-45
2022/08/11 02:03:15;;;;;;;5.28;2.30;;;;;;;30.53;29.01;101495.59;5096226;28;20032;-46
2022/08/11 02:05:59;;;;;;;6.40;1.85;;;;;;;30.55;28.95;101499.16;5114324;28;20119;-44
2022/08/11 02:08:52;;;;;;;3.15;1.52;;;;;;;30.71;28.88;101490.19;5097346;28;20023;-45
2022/08/11 02:11:32;;;;;;;6.95;1.77;;;;;;;30.60;28.94;101490.28;5089279;28;20040;-48
2022/08/11 02:14:20;;;;;;;3.67;1.85;;;;;;;30.57;29.00;101487.63;5114207;28;20027;-45
2022/08/11 02:16:52;;;;;;;5.18;1.63;;;;;;;30.30;29.41;101488.66;5107156;28;20040;-46
2022/08/11 02:25:31;;;;;;;4.45;1.98;;;;;;;30.38;29.33;101468.34;5103402;28;20534;-44
2022/08/11 02:28:10;;;;;;;6.78;2.40;;;;;;;30.47;29.06;101489.44;5095125;28;20031;-46
2022/08/11 02:30:42;;;;;;;4.38;2.10;;;;;;;30.43;29.20;101485.06;5095875;28;20016;-45
2022/08/11 02:33:26;;;;;;;7.47;1.95;;;;;;;30.39;28.92;101487.72;5095877;28;20039;-44
2022/08/11 02:35:59;;;;;;;3.58;1.63;;;;;;;30.37;29.36;101487.75;5097286;28;20031;-44
2022/08/11 02:38:30;;;;;;;6.63;2.17;;;;;;;30.33;29.29;101491.28;5113347;28;20475;-48
2022/08/11 02:42:21;;;;;;;4.80;1.58;;;;;;;30.30;28.96;101481.63;5095762;28;20027;-47
2022/08/11 02:44:02;;;;;;;4.20;2.00;;;;;;;30.11;29.38;101472.91;5097698;28;20070;-43
2022/08/11 02:46:38;;;;;;;6.18;1.90;;;;;;;30.20;29.41;101493.13;5113586;28;20031;-51
2022/08/11 02:52:07;;;;;;;7.18;2.08;;;;;;;30.03;29.45;101479.97;5091553;28;20046;-46
2022/08/11 02:55:13;;;;;;;5.80;1.85;;;;;;;30.14;29.18;101488.75;5095911;28;20399;-44
2022/08/11 02:57:50;;;;;;;2.83;1.63;;;;;;;30.26;28.94;101484.28;5105538;28;20477;-48
2022/08/11 03:00:19;;;;;;;5.90;1.83;;;;;;;30.19;28.98;101486.09;5095400;28;20466;-47
2022/08/11 03:03:25;;;;;;;6.03;2.28;;;;;;;30.12;29.33;101481.72;5113560;28;20023;-44
2022/08/11 03:05:59;;;;;;;6.32;1.73;;;;;;;30.09;29.49;101490.56;5105247;28;20491;-44
2022/08/11 03:08:40;;;;;;;6.03;1.98;;;;;;;30.07;29.56;101483.47;5113320;28;20023;-44
2022/08/11 03:17:35;;;;;;;4.78;1.85;;;;;;;29.97;29.38;101487.94;5091437;28;20143;-44
2022/08/11 03:20:08;;;;;;;5.72;1.50;;;;;;;29.90;29.55;101486.19;5087805;28;20039;-43
2022/08/11 03:22:57;;;;;;;7.05;1.90;;;;;;;29.83;29.73;101486.19;5112937;28;20069;-44
2022/08/11 03:25:46;;;;;;;4.43;1.70;;;;;;;29.92;29.40;101481.78;5094820;28;20020;-46
2022/08/11 03:28:37;;;;;;;4.32;2.10;;;;;;;29.93;29.59;101494.97;5087083;28;20046;-44
2022/08/11 03:31:10;;;;;;;5.45;2.17;;;;;;;29.89;29.61;101484.44;5105157;28;20039;-43
2022/08/11 03:34:04;;;;;;;5.03;1.67;;;;;;;29.84;29.68;101487.97;5113161;28;20491;-43
2022/08/11 03:36:59;;;;;;;6.00;1.98;;;;;;;29.82;29.65;101486.22;5097703;28;20104;-45
2022/08/11 03:39:57;;;;;;;4.43;1.75;;;;;;;29.76;29.99;101492.41;5109722;28;20031;-53
2022/08/11 03:42:50;;;;;;;4.47;1.50;;;;;;;29.77;29.60;101483.59;5099102;28;20023;-45
2022/08/11 03:45:48;;;;;;;4.22;1.95;;;;;;;29.75;29.89;101482.72;5116732;28;20415;-51
2022/08/11 03:48:38;;;;;;;3.70;2.00;;;;;;;29.67;29.67;101482.75;5093054;28;20167;-45
2022/08/11 03:51:24;;;;;;;7.82;2.17;;;;;;;29.66;29.75;101480.09;5108267;28;20176;-49
2022/08/11 03:54:04;;;;;;;4.53;1.77;;;;;;;29.66;29.90;101477.44;5098773;28;20051;-46
2022/08/11 03:57:10;;;;;;;2.70;1.40;;;;;;;29.61;29.94;101480.09;5098747;28;20055;-48
2022/08/11 04:00:17;;;;;;;3.65;1.73;;;;;;;29.68;29.79;101475.69;5109253;28;20188;-47
2022/08/11 04:03:23;;;;;;;10.05;1.75;;;;;;;29.66;29.81;101478.34;5115943;28;20412;-44
2022/08/11 04:06:14;;;;;;;9.07;2.10;;;;;;;29.52;30.19;101477.50;5107378;28;20436;-47
2022/08/11 04:09:20;;;;;;;4.07;1.73;;;;;;;29.49;30.01;101473.09;5109752;28;20516;-52
2022/08/11 04:12:16;;;;;;;4.35;2.00;;;;;;;29.55;29.87;101475.72;5116361;28;20153;-45
2022/08/11 04:18:29;;;;;;;8.07;1.98;;;;;;;29.55;29.75;101482.75;5107927;28;20034;-47
2022/08/11 04:21:26;;;;;;;4.20;1.77;;;;;;;29.59;29.87;101478.38;5114583;28;20042;-45
2022/08/11 04:24:35;;;;;;;4.95;1.70;;;;;;;29.35;30.25;101483.72;5112385;28;20035;-44
2022/08/11 04:27:23;;;;;;;5.22;1.70;;;;;;;29.52;30.04;101477.50;5111015;28;20114;-46
2022/08/11 04:30:13;;;;;;;5.20;2.13;;;;;;;29.55;30.03;101478.38;5116079;28;20026;-51
2022/08/11 04:32:50;;;;;;;3.63;1.70;;;;;;;29.47;30.07;101479.28;5109014;28;20138;-46
2022/08/11 04:35:26;;;;;;;3.75;1.92;;;;;;;29.40;30.13;101484.56;5116158;28;20398;-43
2022/08/11 04:38:05;;;;;;;3.80;1.73;;;;;;;29.35;30.24;101474.88;5115895;28;20027;-47
2022/08/11 04:40:53;;;;;;;3.20;1.52;;;;;;;29.36;29.92;101474.91;5097949;28;20024;-45
2022/08/11 04:43:40;;;;;;;5.10;1.90;;;;;;;29.38;30.02;101473.09;5115280;28;20497;-46
2022/08/11 04:46:47;;;;;;;5.18;2.03;;;;;;;29.29;30.44;101483.66;5115979;28;20063;-46
2022/08/11 05:02:21;;;;;;;5.20;2.38;;;;;;;29.04;30.51;101478.41;5107193;28;20024;-49
2022/08/11 05:08:15;;;;;;;6.63;1.83;;;;;;;29.05;30.61;101485.44;5109175;28;20084;-52
2022/08/11 05:11:21;;;;;;;6.57;1.90;;;;;;;29.08;30.41;101471.38;5088976;28;20031;-45
2022/08/11 05:35:00;;;;;;;5.85;2.08;;;;;;;29.11;29.96;101485.44;5089982;28;20036;-46
2022/08/11 05:37:17;;;;;;;4.85;2.40;;;;;;;29.19;30.27;101481.94;5093112;28;20036;-49
2022/08/11 05:56:59;;;;;;;7.05;1.70;;;;;;;29.14;30.15;101467.84;5107011;28;20498;-44
2022/08/11 05:59:28;;;;;;;4.55;1.90;;;;;;;29.27;29.88;101482.78;5114377;28;20470;-45
2022/08/11 06:02:07;;;;;;;2.58;1.55;;;;;;;29.23;30.14;101479.28;5095336;28;20478;-52
2022/08/11 06:04:36;;;;;;;3.38;1.88;;;;;;;29.28;30.11;101479.25;5114079;28;20020;-44
2022/08/11 06:07:08;;;;;;;4.32;1.75;;;;;;;29.39;29.96;101476.66;5096624;28;20015;-44
2022/08/11 06:09:38;;;;;;;4.45;1.60;;;;;;;29.39;30.24;101485.44;5096179;28;20028;-46
2022/08/11 06:12:07;;;;;;;5.90;1.95;;;;;;;29.49;30.00;101490.72;5113479;28;20023;-47
2022/08/11 06:14:41;;;;;;;5.03;1.83;;;;;;;29.52;29.69;101470.44;5111489;28;20032;-44
2022/08/11 06:17:10;;;;;;;13.10;3.00;;;;;;;29.49;29.76;101475.72;5091933;28;20390;-44
2022/08/11 06:19:41;;;;;;;8.02;1.52;;;;;;;29.55;30.10;101491.59;5112995;28;20019;-46
2022/08/11 06:22:10;;;;;;;2.58;1.50;;;;;;;29.49;29.92;101475.72;5113805;28;20387;-45
2022/08/11 06:24:41;;;;;;;3.67;1.65;;;;;;;29.58;29.68;101482.75;5095023;28;20100;-45
2022/08/11 06:27:09;;;;;;;4.72;2.08;;;;;;;29.63;29.83;101477.44;5092472;28;20023;-43
2022/08/11 06:29:45;;;;;;;6.25;1.90;;;;;;;29.75;29.72;101487.09;5096162;28;20160;-45
2022/08/11 06:32:14;;;;;;;6.30;2.38;;;;;;;29.73;29.64;101479.19;5091785;28;20560;-42
2022/08/11 06:34:58;;;;;;;6.07;1.70;;;;;;;29.69;29.44;101474.78;5092437;28;20035;-43
2022/08/11 06:37:42;;;;;;;8.45;1.95;;;;;;;29.67;29.71;101485.38;5093485;28;20490;-43
2022/08/11 06:40:13;;;;;;;8.87;1.83;;;;;;;29.73;29.94;101481.84;5093464;28;20039;-44
2022/08/11 06:43:08;;;;;;;5.68;2.10;;;;;;;29.74;29.65;101482.72;5093501;28;20032;-43
2022/08/11 06:46:06;;;;;;;7.75;1.60;;;;;;;29.88;29.60;101490.59;5092500;28;20067;-47
2022/08/11 06:48:35;;;;;;;6.80;2.30;;;;;;;29.84;29.85;101484.44;5085595;28;20032;-43
2022/08/11 06:51:11;;;;;;;8.23;1.88;;;;;;;29.80;29.87;101488.84;5092176;28;20378;-51
2022/08/11 06:53:44;;;;;;;4.85;1.88;;;;;;;29.89;29.74;101485.28;5091341;28;20024;-44
2022/08/11 07:02:00;;;;;;;9.63;1.80;;;;;;;29.99;29.58;101480.88;5072587;28;20044;-44
2022/08/11 07:04:49;;;;;;;4.60;1.92;;;;;;;29.98;29.64;101477.38;5061914;28;20471;-48
2022/08/11 07:16:34;;;;;;;4.13;1.60;;;;;;;30.08;29.46;101477.31;5088758;28;20040;-43
2022/08/11 07:30:30;;;;;;;3.80;1.40;;;;;;;30.23;28.67;101469.28;5078276;28;20034;-52
2022/08/11 07:33:01;;;;;;;3.28;1.90;;;;;;;30.27;29.01;101478.13;5095533;28;20127;-44
2022/08/11 07:35:50;;;;;;;3.58;1.60;;;;;;;30.25;28.96;101466.66;5095607;28;20093;-45
2022/08/11 07:38:23;;;;;;;7.85;1.73;;;;;;;30.43;28.23;101463.00;5096785;28;20031;-44
2022/08/11 07:40:52;;;;;;;5.68;1.65;;;;;;;30.37;28.54;101463.94;5095694;28;20024;-46
2022/08/11 07:43:20;;;;;;;5.50;1.80;;;;;;;30.43;28.71;101466.53;5096460;28;20036;-42
2022/08/11 07:54:12;;;;;;;9.30;1.60;;;;;;;30.49;27.67;101451.47;5093136;28;20490;-47
2022/08/11 07:56:40;;;;;;;4.68;1.73;;;;;;;30.60;28.10;101462.94;5096577;28;20075;-49
2022/08/11 08:18:44;;;;;;;3.35;1.40;;;;;;;31.01;27.10;101456.41;5092260;28;20089;-51
2022/08/11 08:21:14;;;;;;;7.82;1.42;;;;;;;31.09;27.13;101450.16;5094560;28;20035;-50
2022/08/11 08:23:46;;;;;;;2.47;1.73;;;;;;;31.16;26.61;101442.16;5095473;28;20104;-45
2022/08/11 08:26:59;;;;;;;5.20;1.60;;;;;;;31.17;26.23;101445.69;5095818;28;20479;-46
2022/08/11 08:31:54;;;;;;;2.30;1.40;;;;;;;31.28;26.15;101437.63;5101860;28;20467;-43
2022/08/11 08:34:22;;;;;;;9.05;1.75;;;;;;;31.32;25.81;101436.69;5116022;28;20035;-45
2022/08/11 08:36:53;;;;;;;6.38;1.30;;;;;;;31.33;25.66;101436.66;5115862;28;20020;-46
2022/08/11 08:39:22;;;;;;;5.72;1.50;;;;;;;31.39;25.35;101438.38;5116312;28;20042;-47
2022/08/11 08:41:56;;;;;;;3.15;1.35;;;;;;;31.37;25.68;101433.09;5116107;28;20027;-46
2022/08/11 08:44:25;;;;;;;3.53;1.40;;;;;;;31.40;25.45;101426.00;5116009;28;20027;-46
2022/08/11 08:46:57;;;;;;;4.78;1.60;;;;;;;31.50;25.79;101431.19;5115968;28;20034;-49
2022/08/11 08:49:33;;;;;;;6.32;1.50;;;;;;;31.60;25.41;101437.28;5116057;28;20023;-46
2022/08/11 08:52:03;;;;;;;2.80;1.30;;;;;;;31.61;24.71;101433.69;5116334;28;20050;-45
2022/08/11 08:54:38;;;;;;;3.92;1.30;;;;;;;31.58;25.56;101425.78;5116276;28;20019;-48
2022/08/11 08:57:08;;;;;;;11.70;1.73;;;;;;;31.61;25.00;101436.34;5115930;28;20363;-46
2022/08/11 08:59:40;;;;;;;2.65;1.55;;;;;;;31.60;25.02;101431.06;5116003;28;20080;-45
2022/08/11 09:02:11;;;;;;;4.03;1.25;;;;;;;31.55;25.04;101425.81;5097389;28;20032;-53
2022/08/11 09:04:41;;;;;;;5.43;1.20;;;;;;;31.66;25.10;101442.47;5097039;28;20023;-45
2022/08/11 09:07:13;;;;;;;2.72;1.50;;;;;;;31.69;24.57;101428.28;5115713;28;20031;-43
2022/08/11 09:09:44;;;;;;;6.20;1.38;;;;;;;31.75;24.99;101428.25;5115361;28;20027;-43
2022/08/11 09:12:13;;;;;;;1.98;1.23;;;;;;;31.81;24.56;101435.25;5115386;28;20072;-43
2022/08/11 09:15:02;;;;;;;2.25;1.23;;;;;;;31.88;24.81;101430.75;5114969;28;20020;-47
2022/08/11 09:17:52;;;;;;;10.30;1.48;;;;;;;31.87;24.36;101435.19;5115060;28;20042;-45
2022/08/11 09:20:28;;;;;;;6.72;1.83;;;;;;;32.01;23.40;101428.81;5115314;28;20028;-44
2022/08/11 09:28:35;;;;;;;10.43;1.95;;;;;;;32.21;22.51;101428.50;5107563;28;20394;-49
2022/08/11 09:31:04;;;;;;;5.50;1.10;;;;;;;32.26;22.13;101434.66;5115038;28;20066;-45
2022/08/11 09:33:35;;;;;;;5.38;1.33;;;;;;;32.32;22.43;101429.28;5097051;28;20023;-50
2022/08/11 09:40:27;;;;;;;5.85;1.50;;;;;;;32.32;22.25;101420.41;5115061;28;20024;-44
2022/08/11 09:41:40;;;;;;;5.43;1.27;;;;;;;32.32;21.86;101421.31;5106408;28;20085;-47
2022/08/11 09:44:51;;;;;;;6.15;1.15;;;;;;;32.37;22.14;101415.91;5114587;28;20023;-45
2022/08/11 09:46:58;;;;;;;5.00;1.30;;;;;;;32.32;21.57;101402.72;5108505;28;20031;-44
2022/08/11 09:49:27;;;;;;;3.83;1.25;;;;;;;32.37;21.64;101392.03;5114501;28;20051;-46
2022/08/11 09:51:56;;;;;;;3.78;1.05;;;;;;;32.38;21.04;101407.06;5096319;28;20094;-46
2022/08/11 09:54:25;;;;;;;3.97;1.25;;;;;;;32.51;20.89;101400.63;5114253;28;20027;-45
2022/08/11 09:59:42;;;;;;;6.10;1.38;;;;;;;32.65;21.01;101396.88;5092266;28;20540;-44
2022/08/11 10:02:11;;;;;;;3.03;1.02;;;;;;;32.70;20.36;101395.03;5113979;28;20506;-44
2022/08/11 10:04:44;;;;;;;3.78;1.42;;;;;;;32.70;20.65;101395.03;5096421;28;20524;-47
2022/08/11 10:07:15;;;;;;;5.75;1.02;;;;;;;32.70;20.28;101395.88;5096512;28;20451;-46
2022/08/11 10:09:52;;;;;;;8.00;1.55;;;;;;;32.77;20.00;101399.31;5096459;28;20087;-47
2022/08/11 10:12:32;;;;;;;5.15;1.10;;;;;;;32.81;20.18;101398.38;5096123;28;20028;-46
2022/08/11 10:15:48;;;;;;;1.77;1.20;;;;;;;32.85;20.09;101417.78;5114067;28;20471;-46
2022/08/11 10:20:44;;;;;;;6.15;1.80;;;;;;;32.98;19.66;101379.50;5103073;28;20036;-44
2022/08/11 10:28:47;;;;;;;4.25;1.60;;;;;;;33.05;19.99;101369.63;5095205;28;20063;-44
2022/08/11 10:34:03;;;;;;;5.78;2.08;;;;;;;33.14;19.44;101369.41;5091686;28;20036;-46
2022/08/11 10:36:34;;;;;;;7.20;2.58;;;;;;;33.17;19.22;101360.53;5079003;28;20031;-54
2022/08/11 10:39:05;;;;;;;3.40;1.67;;;;;;;33.18;19.77;101363.13;5095753;28;20038;-43
2022/08/11 10:44:23;;;;;;;9.32;1.58;;;;;;;33.35;19.13;101353.94;5105936;28;20063;-48
2022/08/11 10:47:34;;;;;;;2.85;1.33;;;;;;;33.40;19.21;101360.09;5113293;28;20023;-47
2022/08/11 10:49:41;;;;;;;7.32;1.42;;;;;;;33.48;18.99;101346.63;5106849;28;20035;-47
2022/08/11 11:00:31;;;;;;;5.40;1.48;;;;;;;33.56;19.50;101336.66;5091919;28;20478;-45
2022/08/11 11:03:00;;;;;;;2.10;1.23;;;;;;;33.55;19.60;101342.03;5112543;28;20123;-63
2022/08/11 11:05:31;;;;;;;7.57;1.85;;;;;;;33.62;19.89;101336.53;5078730;28;20535;-61
2022/08/11 11:08:51;;;;;;;9.85;1.33;;;;;;;33.57;19.54;101335.75;5112486;28;20042;-44
2022/08/11 11:10:59;;;;;;;5.00;1.42;;;;;;;33.56;19.88;101342.00;5113363;28;20032;-51
2022/08/11 11:19:07;;;;;;;6.55;1.20;;;;;;;33.79;18.96;101317.53;5088501;28;20036;-51
2022/08/11 11:21:35;;;;;;;5.72;1.65;;;;;;;33.79;19.36;101322.84;5109116;28;20024;-48
2022/08/11 11:24:32;;;;;;;5.15;1.42;;;;;;;33.91;19.20;101319.06;5092511;28;20016;-50
2022/08/11 11:27:06;;;;;;;8.02;1.60;;;;;;;33.86;19.15;101307.59;5104427;28;20035;-52
2022/08/11 11:29:57;;;;;;;6.20;1.08;;;;;;;33.83;18.76;101305.03;5072627;28;20032;-51
2022/08/11 11:32:38;;;;;;;6.38;1.10;;;;;;;33.87;19.19;101316.47;5108557;28;20094;-49
2022/08/11 11:35:17;;;;;;;5.72;1.45;;;;;;;34.01;18.62;101316.16;5110052;28;20077;-48
2022/08/11 11:37:49;;;;;;;4.15;1.50;;;;;;;34.11;18.32;101295.50;5110103;28;20024;-51
2022/08/11 11:40:20;;;;;;;3.42;1.42;;;;;;;34.07;18.42;101305.38;5092484;28;20031;-48
2022/08/11 11:42:50;;;;;;;6.85;1.42;;;;;;;33.96;18.81;101310.94;5074593;28;20023;-50
2022/08/11 11:45:21;;;;;;;5.13;0.93;;;;;;;34.04;18.54;101314.31;5092372;28;20056;-46
2022/08/11 11:47:51;;;;;;;12.70;1.40;;;;;;;34.08;18.47;101294.69;5092278;28;20031;-48
2022/08/11 11:50:26;;;;;;;3.28;1.25;;;;;;;34.13;18.21;101296.34;5092715;28;20054;-48
2022/08/11 11:52:55;;;;;;;5.43;1.10;;;;;;;34.12;18.79;101291.94;5109982;28;20031;-50
2022/08/11 11:55:24;;;;;;;6.32;1.48;;;;;;;34.12;18.22;101299.91;5092752;28;20039;-46
2022/08/11 12:01:24;;;;;;;6.53;1.13;;;;;;;34.18;18.10;101279.34;5108477;28;20749;-46
2022/08/11 12:03:28;;;;;;;4.80;1.08;;;;;;;34.22;18.20;101277.50;5090951;28;20052;-46
2022/08/11 12:05:58;;;;;;;1.77;1.30;;;;;;;34.32;18.28;101283.47;5114257;28;20023;-50
2022/08/11 12:08:26;;;;;;;5.22;1.10;;;;;;;34.36;18.64;101291.31;5078449;28;20027;-46
2022/08/11 12:13:46;;;;;;;7.88;1.45;;;;;;;34.40;18.08;101289.44;5090889;28;20043;-47
2022/08/11 12:16:15;;;;;;;10.77;1.30;;;;;;;34.48;17.88;101300.81;5095541;28;20391;-50
2022/08/11 12:18:46;;;;;;;10.48;1.48;;;;;;;34.58;17.42;101285.47;5110660;28;20019;-49
2022/08/11 12:21:15;;;;;;;5.32;1.40;;;;;;;34.49;17.76;101289.25;5111845;28;20597;-46
2022/08/11 12:29:26;;;;;;;7.40;1.20;;;;;;;34.54;17.62;101278.44;5092027;28;20482;-45
2022/08/11 12:31:57;;;;;;;2.55;1.15;;;;;;;34.53;17.83;101296.22;5090285;28;20521;-49
2022/08/11 12:34:27;;;;;;;6.15;1.27;;;;;;;34.59;18.09;101295.16;5092285;28;20096;-48
2022/08/11 12:36:58;;;;;;;5.72;1.30;;;;;;;34.69;17.46;101293.13;5092525;28;20028;-47
2022/08/11 12:45:32;;;;;;;4.75;1.20;;;;;;;34.68;17.61;101276.28;5088769;28;20479;-51
2022/08/11 12:53:46;;;;;;;8.05;1.23;;;;;;;34.66;18.16;101267.44;5085213;28;20092;-56
2022/08/11 13:07:13;;;;;;;6.45;1.33;;;;;;;34.96;18.13;101280.84;6082120;22;20325;-46
2022/08/11 13:09:43;;;;;;;3.13;1.20;;;;;;;35.00;17.42;101270.94;5037270;28;20033;-45
2022/08/11 13:12:54;;;;;;;3.08;1.20;;;;;;;35.06;17.54;101265.44;5048511;28;20045;-47
2022/08/11 13:14:59;;;;;;;6.40;1.63;;;;;;;34.99;17.84;101258.56;5043710;28;20045;-43
2022/08/11 13:17:28;;;;;;;3.90;1.40;;;;;;;35.02;17.51;101263.78;5051878;28;20039;-54
2022/08/11 13:19:59;;;;;;;4.72;1.23;;;;;;;35.02;17.66;101255.78;5042301;28;20444;-51
2022/08/11 13:22:28;;;;;;;7.20;1.23;;;;;;;35.09;17.22;101249.38;5036890;28;20033;-45
2022/08/11 13:24:57;;;;;;;3.58;1.27;;;;;;;35.10;17.13;101250.22;5038787;28;20617;-54
2022/08/11 13:27:24;;;;;;;6.78;1.70;;;;;;;35.09;17.47;101248.47;5004758;28;20147;-48
2022/08/11 13:31:09;;;;;;;5.60;1.33;;;;;;;34.99;17.70;101243.44;5039341;28;20029;-46
2022/08/11 13:32:42;;;;;;;5.57;1.48;;;;;;;35.04;17.73;101243.28;5037566;28;20103;-46
2022/08/11 13:35:16;;;;;;;2.70;1.20;;;;;;;35.06;17.17;101244.13;5038196;28;20087;-48
2022/08/11 13:37:46;;;;;;;6.25;1.50;;;;;;;34.98;17.66;101248.84;5037387;28;20060;-47
2022/08/11 13:40:14;;;;;;;3.78;1.10;;;;;;;34.98;17.42;101243.50;5020577;28;20124;-54
2022/08/11 13:42:43;;;;;;;4.75;1.40;;;;;;;35.09;17.60;101243.16;5036431;28;20116;-49
2022/08/11 13:45:12;;;;;;;3.92;1.00;;;;;;;35.24;17.19;101242.72;5039295;28;20519;-45
2022/08/11 13:50:16;;;;;;;4.63;1.20;;;;;;;35.19;17.54;101228.63;5851152;22;20066;-45
2022/08/11 13:52:45;;;;;;;7.25;1.30;;;;;;;35.26;17.16;101234.66;5013192;28;20030;-49
2022/08/11 13:55:20;;;;;;;5.78;1.60;;;;;;;35.27;17.54;101233.72;5011786;28;20056;-60
2022/08/11 13:57:52;;;;;;;3.15;1.48;;;;;;;35.19;17.48;101233.06;5010199;28;20022;-56
2022/08/11 14:02:57;;;;;;;4.43;1.17;;;;;;;35.30;17.43;101228.31;5548322;22;20053;-50
2022/08/11 14:05:29;;;;;;;2.30;1.38;;;;;;;35.36;17.50;101221.91;5052935;28;20029;-46
2022/08/11 14:08:03;;;;;;;3.03;1.73;;;;;;;35.35;17.47;101213.00;5048391;28;20021;-69
2022/08/11 14:10:33;;;;;;;3.80;1.17;;;;;;;35.41;17.42;101219.97;5048390;28;20025;-46
2022/08/11 14:13:51;;;;;;;2.45;1.65;;;;;;;35.39;17.51;101213.81;5049699;28;20036;-49
2022/08/11 14:15:54;;;;;;;6.57;1.27;;;;;;;35.42;17.28;101224.34;5036081;28;20388;-55
2022/08/11 14:18:26;;;;;;;4.60;1.23;;;;;;;35.51;17.22;101218.78;5033205;28;20053;-49
2022/08/11 14:23:46;;;;;;;3.05;0.90;;;;;;;35.48;16.75;101210.00;5027654;28;20037;-53
2022/08/11 14:26:26;;;;;;;4.40;1.40;;;;;;;35.50;17.29;101211.69;5045076;28;20379;-50
2022/08/11 14:28:56;;;;;;;5.32;1.40;;;;;;;35.54;17.00;101208.00;5052426;28;20025;-63
2022/08/11 14:31:25;;;;;;;5.93;1.33;;;;;;;35.49;16.71;101219.75;5047929;28;20395;-62
2022/08/11 14:33:56;;;;;;;3.80;1.02;;;;;;;35.61;16.62;101208.66;5045716;28;20021;-54
2022/08/11 14:36:27;;;;;;;3.33;1.30;;;;;;;35.65;16.96;101217.44;5051406;28;20055;-47
2022/08/11 14:38:55;;;;;;;3.20;1.10;;;;;;;35.74;16.65;101214.47;5052452;28;20025;-46
2022/08/11 14:47:13;;;;;;;5.82;1.10;;;;;;;35.94;16.69;101196.88;5041830;28;20029;-63
2022/08/11 14:49:42;;;;;;;4.28;1.20;;;;;;;35.99;16.77;101209.16;5049612;28;20509;-62
2022/08/11 14:52:14;;;;;;;4.72;1.20;;;;;;;36.15;17.06;101185.50;5048631;28;20064;-50
2022/08/11 14:57:31;;;;;;;4.75;1.50;;;;;;;36.21;17.50;101202.22;5042219;28;20029;-51
2022/08/11 15:00:02;;;;;;;10.07;1.20;;;;;;;35.85;16.61;101201.63;5049147;28;20395;-46
2022/08/11 15:03:16;;;;;;;8.77;1.48;;;;;;;35.79;17.07;101207.16;5047564;28;20138;-55
2022/08/11 15:05:19;;;;;;;8.10;1.67;;;;;;;35.70;16.89;101197.69;5036882;28;20036;-65
2022/08/11 15:07:47;;;;;;;7.20;1.30;;;;;;;35.82;17.35;101207.06;5048486;28;20025;-46
2022/08/11 15:10:17;;;;;;;5.05;1.25;;;;;;;35.81;17.31;101209.81;5044055;28;20025;-65
2022/08/11 15:12:44;;;;;;;6.63;1.50;;;;;;;35.84;16.78;101199.88;5049133;28;20040;-53
2022/08/11 15:18:03;;;;;;;5.47;1.38;;;;;;;35.68;16.83;101212.88;5041649;28;20527;-47
2022/08/11 15:26:10;;;;;;;3.30;1.20;;;;;;;35.77;16.86;101225.03;5048524;28;20064;-45
2022/08/11 15:37:35;;;;;;;5.00;1.27;;;;;;;35.49;17.34;101233.94;5046286;28;20142;-46
2022/08/11 15:46:23;;;;;;;6.37;1.10;;;;;;;35.42;17.07;101208.34;5047369;28;20037;-45
2022/08/11 15:48:57;;;;;;;8.13;1.35;;;;;;;35.29;17.68;101218.56;5052355;28;20406;-47
2022/08/11 15:51:37;;;;;;;2.03;1.10;;;;;;;35.37;16.90;101221.84;5053795;28;20111;-45
2022/08/11 15:54:10;;;;;;;3.05;1.60;;;;;;;35.25;17.53;101209.75;5052350;28;20057;-45
2022/08/11 15:56:41;;;;;;;9.27;1.20;;;;;;;35.29;16.91;101216.75;5052740;28;20029;-60
2022/08/11 16:04:53;;;;;;;5.70;1.20;;;;;;;35.42;17.49;101203.91;5006263;26;20056;-47
2022/08/11 16:07:26;;;;;;;9.18;1.33;;;;;;;35.37;17.01;101207.63;5035244;28;20404;-49
2022/08/11 16:09:57;;;;;;;6.45;1.42;;;;;;;35.39;16.96;101203.13;5001563;28;20033;-46
2022/08/11 16:12:28;;;;;;;3.92;1.10;;;;;;;35.43;17.30;101215.44;5010349;28;20026;-46
2022/08/11 16:17:57;;;;;;;7.28;1.10;;;;;;;35.48;17.46;101218.84;5027904;28;20041;-47
2022/08/11 16:20:27;;;;;;;3.50;1.10;;;;;;;35.50;16.69;101206.34;5035479;28;20025;-48
2022/08/11 16:22:59;;;;;;;5.78;1.30;;;;;;;35.48;16.64;101199.34;5015311;28;20377;-47